createdAt,value
2017-03-10T00:00:28.136Z,88.67
2017-03-10T00:01:10.526Z,88.67
2017-03-10T00:03:32.287Z,89.23
2017-03-10T00:04:15.103Z,89.33
2017-03-10T00:04:57.554Z,89.33
2017-03-10T00:05:40.186Z,89.23
2017-03-10T00:06:22.555Z,89.23
2017-03-10T00:07:05.054Z,89.23
2017-03-10T00:07:47.346Z,88.76
2017-03-10T00:08:29.454Z,88.76
2017-03-10T00:09:12.114Z,89.23
2017-03-10T00:09:54.647Z,89.23
2017-03-10T00:10:37.370Z,88.76
2017-03-10T00:11:19.736Z,88.95
2017-03-10T00:12:02.632Z,89.23
2017-03-10T00:12:44.935Z,88.85
2017-03-10T00:13:27.600Z,88.85
2017-03-10T00:14:10.312Z,89.14
2017-03-10T00:14:52.949Z,88.76
2017-03-10T00:15:35.488Z,88.85
2017-03-10T00:16:17.786Z,88.95
2017-03-10T00:17:00.542Z,88.85
2017-03-10T00:17:43.139Z,88.85
2017-03-10T00:19:32.842Z,89.14
2017-03-10T00:20:14.709Z,88.95
2017-03-10T00:20:57.134Z,88.95
2017-03-10T00:21:39.678Z,88.95
2017-03-10T00:22:21.993Z,89.23
2017-03-10T00:23:04.870Z,89.14
2017-03-10T00:23:47.165Z,88.95
2017-03-10T00:24:30.364Z,89.04
2017-03-10T00:25:12.463Z,89.04
2017-03-10T00:25:55.752Z,89.04
2017-03-10T00:28:17.056Z,89.04
2017-03-10T00:28:59.376Z,88.95
2017-03-10T00:30:54.553Z,89.23
2017-03-10T00:32:49.901Z,89.23
2017-03-10T00:34:39.621Z,89.14
2017-03-10T00:35:22.277Z,89.14
2017-03-10T00:37:43.874Z,89.23
2017-03-10T00:38:26.420Z,89.23
2017-03-10T00:39:09.180Z,89.14
2017-03-10T00:39:51.889Z,89.14
2017-03-10T00:40:34.276Z,89.33
2017-03-10T00:41:16.688Z,89.33
2017-03-10T00:41:59.671Z,88.85
2017-03-10T00:44:00.152Z,89.33
2017-03-10T00:44:42.837Z,88.85
2017-03-10T00:45:25.570Z,89.04
2017-03-10T00:47:41.798Z,88.76
2017-03-10T00:48:24.166Z,88.85
2017-03-10T00:49:05.961Z,88.95
2017-03-10T00:51:06.861Z,88.95
2017-03-10T00:51:49.468Z,88.95
2017-03-10T00:52:32.060Z,88.95
2017-03-10T00:53:14.217Z,88.95
2017-03-10T00:55:30.640Z,89.04
2017-03-10T00:56:13.671Z,89.14
2017-03-10T00:56:56.365Z,88.67
2017-03-10T00:58:51.631Z,89.04
2017-03-10T00:59:34.283Z,88.67
2017-03-10T01:00:16.323Z,88.76
2017-03-10T01:00:58.854Z,88.67
2017-03-10T01:01:41.328Z,88.76
2017-03-10T01:02:23.691Z,88.67
2017-03-10T01:03:06.197Z,88.76
2017-03-10T01:03:48.711Z,89.42
2017-03-10T01:05:43.478Z,89.42
2017-03-10T01:07:39.752Z,89.42
2017-03-10T01:08:22.425Z,89.42
2017-03-10T01:09:04.660Z,89.42
2017-03-10T01:10:54.266Z,89.04
2017-03-10T01:11:37.208Z,89.23
2017-03-10T01:12:19.187Z,89.42
2017-03-10T01:13:01.821Z,89.33
2017-03-10T01:13:44.207Z,89.04
2017-03-10T01:14:26.295Z,89.04
2017-03-10T01:16:48.091Z,89.23
2017-03-10T01:17:30.536Z,89.33
2017-03-10T01:18:13.219Z,89.33
2017-03-10T01:18:55.478Z,89.33
2017-03-10T01:19:38.076Z,89.33
2017-03-10T01:20:20.272Z,89.33
2017-03-10T01:21:02.388Z,89.33
2017-03-10T01:21:44.860Z,89.52
2017-03-10T01:22:27.229Z,89.04
2017-03-10T01:23:09.241Z,89.14
2017-03-10T01:23:51.862Z,89.33
2017-03-10T01:24:34.713Z,89.23
2017-03-10T01:25:17.300Z,89.04
2017-03-10T01:27:12.333Z,89.23
2017-03-10T01:27:55.213Z,89.23
2017-03-10T01:28:37.476Z,89.23
2017-03-10T01:29:20.193Z,89.04
2017-03-10T01:30:03.026Z,89.23
2017-03-10T01:30:45.392Z,89.04
2017-03-10T01:31:27.984Z,89.23
2017-03-10T01:32:10.714Z,89.04
2017-03-10T01:32:52.852Z,89.14
2017-03-10T01:33:35.135Z,89.04
2017-03-10T01:34:18.096Z,89.23
2017-03-10T01:35:00.578Z,89.04
2017-03-10T01:35:42.911Z,88.76
2017-03-10T01:36:24.699Z,89.23
2017-03-10T01:37:07.026Z,89.42
2017-03-10T01:37:49.664Z,89.33
2017-03-10T01:38:32.276Z,88.85
2017-03-10T01:39:14.879Z,89.33
2017-03-10T01:39:57.219Z,89.14
2017-03-10T01:40:39.830Z,89.42
2017-03-10T01:41:22.291Z,89.04
2017-03-10T01:43:38.572Z,89.23
2017-03-10T01:45:39.219Z,89.33
2017-03-10T01:46:21.222Z,89.52
2017-03-10T01:47:02.688Z,89.42
2017-03-10T01:47:45.116Z,89.23
2017-03-10T01:48:27.591Z,89.33
2017-03-10T01:49:10.149Z,89.33
2017-03-10T01:51:32.003Z,89.42
2017-03-10T01:52:14.741Z,89.33
2017-03-10T01:52:57.206Z,89.47
2017-03-10T01:54:46.451Z,89.19
2017-03-10T01:55:28.800Z,89.28
2017-03-10T01:56:11.406Z,89.28
2017-03-10T01:56:53.624Z,89.19
2017-03-10T01:57:36.112Z,89.28
2017-03-10T01:58:18.390Z,89.19
2017-03-10T01:59:00.764Z,89.28
2017-03-10T02:01:16.303Z,89.19
2017-03-10T02:01:56.834Z,89.28
2017-03-10T02:02:37.361Z,89.28
2017-03-10T02:03:17.905Z,89.28
2017-03-10T02:03:58.444Z,89.28
2017-03-10T02:04:38.967Z,89.28
2017-03-10T02:05:19.494Z,89.28
2017-03-10T02:06:00.018Z,89.19
2017-03-10T02:06:40.575Z,89.19
2017-03-10T02:07:21.097Z,89.19
2017-03-10T02:08:01.595Z,89.19
2017-03-10T02:08:42.121Z,89.19
2017-03-10T02:09:22.652Z,89.09
2017-03-10T02:10:03.185Z,89.28
2017-03-10T02:10:43.711Z,89
2017-03-10T02:11:24.237Z,89.19
2017-03-10T02:12:04.765Z,89.19
2017-03-10T02:12:45.298Z,89.19
2017-03-10T02:13:25.811Z,89.19
2017-03-10T02:14:06.340Z,89.19
2017-03-10T02:14:46.889Z,89
2017-03-10T02:15:27.420Z,88.81
2017-03-10T02:16:07.999Z,89.09
2017-03-10T02:16:48.531Z,89.19
2017-03-10T02:17:29.070Z,89.19
2017-03-10T02:18:09.604Z,88.71
2017-03-10T02:18:50.116Z,89.19
2017-03-10T02:19:30.658Z,88.81
2017-03-10T02:20:11.173Z,88.71
2017-03-10T02:20:51.707Z,89.19
2017-03-10T02:21:32.223Z,88.81
2017-03-10T02:22:12.754Z,89.09
2017-03-10T02:22:53.308Z,89.09
2017-03-10T02:23:33.830Z,89.28
2017-03-10T02:24:14.364Z,89.28
2017-03-10T02:24:54.907Z,89.19
2017-03-10T02:25:35.415Z,89.19
2017-03-10T02:26:15.946Z,89.19
2017-03-10T02:26:56.478Z,89.28
2017-03-10T02:27:37.002Z,89.19
2017-03-10T02:28:17.538Z,89.28
2017-03-10T02:28:58.067Z,89.19
2017-03-10T02:29:38.591Z,89.19
2017-03-10T02:30:19.949Z,89.28
2017-03-10T02:31:00.482Z,89.28
2017-03-10T02:31:41.011Z,89.19
2017-03-10T02:32:21.569Z,89.38
2017-03-10T02:33:02.097Z,89.19
2017-03-10T02:33:42.632Z,89.38
2017-03-10T02:34:23.162Z,89.28
2017-03-10T02:35:03.695Z,89.38
2017-03-10T02:35:44.235Z,89.38
2017-03-10T02:36:24.771Z,89.38
2017-03-10T02:37:05.304Z,89.38
2017-03-10T02:37:45.825Z,89.38
2017-03-10T02:38:26.357Z,89.76
2017-03-10T02:39:06.885Z,89.57
2017-03-10T02:39:47.528Z,89.28
2017-03-10T02:40:28.065Z,89.76
2017-03-10T02:41:08.594Z,89.38
2017-03-10T02:41:49.114Z,89.38
2017-03-10T02:42:29.642Z,89.67
2017-03-10T02:43:10.157Z,88.9
2017-03-10T02:43:50.687Z,89.86
2017-03-10T02:44:31.217Z,89.57
2017-03-10T02:45:11.758Z,88.9
2017-03-10T02:45:52.296Z,89.76
2017-03-10T02:46:32.888Z,89.57
2017-03-10T02:47:13.426Z,88.9
2017-03-10T02:47:53.952Z,89
2017-03-10T02:48:34.484Z,89.76
2017-03-10T02:49:15.005Z,88.9
2017-03-10T02:49:55.553Z,89
2017-03-10T02:50:36.087Z,89.86
2017-03-10T02:51:16.615Z,89.86
2017-03-10T02:51:57.166Z,89.67
2017-03-10T02:52:37.680Z,89
2017-03-10T02:53:18.209Z,89.57
2017-03-10T02:53:58.738Z,89.76
2017-03-10T02:54:39.265Z,89.67
2017-03-10T02:55:19.803Z,89.76
2017-03-10T02:56:00.332Z,89.76
2017-03-10T02:56:40.866Z,89.86
2017-03-10T02:57:21.396Z,89.67
2017-03-10T02:58:01.923Z,89.86
2017-03-10T02:58:42.455Z,89.76
2017-03-10T02:59:22.987Z,89.76
2017-03-10T03:00:03.511Z,89.86
2017-03-10T03:00:44.047Z,89.76
2017-03-10T03:01:24.580Z,89.86
2017-03-10T03:02:05.108Z,89.95
2017-03-10T03:02:45.642Z,89.86
2017-03-10T03:03:26.164Z,89.76
2017-03-10T03:04:06.699Z,89.19
2017-03-10T03:04:47.222Z,89.86
2017-03-10T03:05:27.753Z,89.86
2017-03-10T03:06:08.289Z,89.76
2017-03-10T03:06:48.805Z,89.76
2017-03-10T03:07:29.337Z,89.76
2017-03-10T03:08:09.865Z,89.76
2017-03-10T03:08:50.401Z,89.86
2017-03-10T03:09:30.939Z,89.86
2017-03-10T03:10:11.474Z,89.86
2017-03-10T03:10:52.006Z,89.76
2017-03-10T03:11:32.533Z,89.86
2017-03-10T03:12:13.052Z,89.76
2017-03-10T03:12:53.570Z,89.86
2017-03-10T03:13:34.103Z,89.76
2017-03-10T03:14:14.626Z,89.76
2017-03-10T03:14:55.185Z,89.86
2017-03-10T03:15:35.717Z,89.95
2017-03-10T03:16:16.256Z,89.76
2017-03-10T03:16:56.790Z,89.76
2017-03-10T03:17:37.320Z,89.76
2017-03-10T03:18:17.834Z,89.86
2017-03-10T03:18:58.376Z,89.86
2017-03-10T03:19:38.914Z,89.47
2017-03-10T03:20:19.446Z,89.95
2017-03-10T03:20:59.982Z,89.86
2017-03-10T03:21:40.513Z,89.76
2017-03-10T03:22:21.039Z,89.57
2017-03-10T03:23:01.568Z,89.76
2017-03-10T03:23:42.104Z,89.57
2017-03-10T03:24:22.633Z,89.57
2017-03-10T03:25:03.168Z,89.76
2017-03-10T03:25:43.699Z,89.57
2017-03-10T03:26:24.233Z,89.57
2017-03-10T03:27:04.770Z,89.57
2017-03-10T03:27:45.304Z,89.57
2017-03-10T03:28:25.829Z,89.67
2017-03-10T03:29:06.380Z,89.57
2017-03-10T03:29:46.889Z,89.76
2017-03-10T03:30:27.422Z,89.76
2017-03-10T03:31:07.950Z,89.76
2017-03-10T03:31:48.484Z,89.38
2017-03-10T03:32:29.011Z,89.67
2017-03-10T03:33:09.546Z,89.38
2017-03-10T03:33:50.075Z,89.38
2017-03-10T03:34:30.616Z,89.47
2017-03-10T03:35:11.140Z,89.57
2017-03-10T03:35:51.667Z,89.67
2017-03-10T03:36:32.198Z,89.67
2017-03-10T03:37:12.726Z,89.57
2017-03-10T03:37:53.263Z,89.57
2017-03-10T03:38:33.785Z,89.47
2017-03-10T03:39:14.314Z,89.76
2017-03-10T03:39:54.849Z,89.57
2017-03-10T03:40:35.378Z,89.67
2017-03-10T03:41:15.922Z,89.47
2017-03-10T03:41:56.457Z,89.67
2017-03-10T03:42:36.989Z,89.76
2017-03-10T03:43:17.529Z,89.38
2017-03-10T03:43:58.069Z,89.67
2017-03-10T03:44:38.595Z,89.57
2017-03-10T03:45:19.123Z,89.86
2017-03-10T03:45:59.659Z,89.76
2017-03-10T03:46:40.189Z,89.57
2017-03-10T03:47:20.725Z,89.57
2017-03-10T03:48:01.246Z,89.47
2017-03-10T03:48:41.777Z,89.57
2017-03-10T03:49:22.309Z,89.38
2017-03-10T03:50:02.845Z,89.38
2017-03-10T03:50:43.376Z,89.57
2017-03-10T03:51:23.914Z,89.67
2017-03-10T03:52:04.441Z,89.47
2017-03-10T03:52:44.977Z,89.47
2017-03-10T03:53:25.512Z,89.57
2017-03-10T03:54:06.044Z,89.57
2017-03-10T03:54:46.580Z,89.67
2017-03-10T03:55:27.110Z,89.76
2017-03-10T03:56:07.645Z,89.47
2017-03-10T03:56:48.178Z,89.67
2017-03-10T03:57:28.711Z,89.76
2017-03-10T03:58:09.244Z,89.76
2017-03-10T03:58:49.775Z,89.67
2017-03-10T03:59:30.304Z,89.76
2017-03-10T04:00:10.838Z,89.57
2017-03-10T04:00:51.368Z,89.57
2017-03-10T04:01:31.901Z,89.86
2017-03-10T04:02:12.437Z,89.76
2017-03-10T04:02:52.968Z,89.67
2017-03-10T04:03:33.501Z,89.76
2017-03-10T04:04:14.029Z,89.67
2017-03-10T04:04:54.561Z,89.95
2017-03-10T04:05:35.096Z,89.76
2017-03-10T04:06:15.628Z,89.67
2017-03-10T04:06:56.157Z,89.95
2017-03-10T04:07:36.694Z,89.86
2017-03-10T04:08:17.229Z,89.67
2017-03-10T04:08:57.763Z,89.76
2017-03-10T04:09:38.296Z,89.67
2017-03-10T04:10:18.824Z,89.57
2017-03-10T04:10:59.357Z,89.67
2017-03-10T04:11:39.908Z,89.57
2017-03-10T04:12:20.444Z,89.67
2017-03-10T04:13:00.978Z,89.76
2017-03-10T04:13:41.508Z,89.67
2017-03-10T04:14:22.042Z,89.76
2017-03-10T04:15:02.576Z,89.67
2017-03-10T04:15:43.113Z,89.67
2017-03-10T04:16:23.647Z,89.76
2017-03-10T04:17:04.181Z,89.67
2017-03-10T04:17:44.712Z,89.76
2017-03-10T04:18:25.245Z,89.57
2017-03-10T04:19:05.774Z,89.76
2017-03-10T04:19:46.308Z,89.76
2017-03-10T04:20:26.844Z,89.57
2017-03-10T04:21:07.425Z,89.57
2017-03-10T04:21:47.960Z,89.76
2017-03-10T04:22:28.492Z,89.76
2017-03-10T04:23:09.023Z,89.57
2017-03-10T04:23:49.550Z,89.57
2017-03-10T04:24:30.079Z,89.57
2017-03-10T04:25:10.608Z,89.38
2017-03-10T04:25:51.138Z,89.38
2017-03-10T04:26:31.675Z,89.47
2017-03-10T04:27:12.209Z,89.57
2017-03-10T04:27:52.737Z,89.67
2017-03-10T04:28:33.274Z,89.47
2017-03-10T04:29:13.797Z,89.67
2017-03-10T04:29:54.325Z,89.47
2017-03-10T04:30:34.853Z,89.47
2017-03-10T04:31:15.382Z,89.47
2017-03-10T04:31:55.910Z,89.47
2017-03-10T04:32:36.442Z,89.57
2017-03-10T04:33:16.969Z,89.19
2017-03-10T04:33:57.502Z,89.38
2017-03-10T04:34:38.035Z,89.47
2017-03-10T04:35:18.566Z,89.67
2017-03-10T04:35:59.097Z,89.43
2017-03-10T04:36:39.628Z,89.47
2017-03-10T04:37:20.155Z,89.67
2017-03-10T04:38:00.679Z,89.62
2017-03-10T04:38:42.911Z,89.28
2017-03-10T04:39:23.431Z,89.28
2017-03-10T04:40:03.947Z,89.38
2017-03-10T04:40:44.464Z,89.24
2017-03-10T04:41:24.995Z,89.24
2017-03-10T04:42:05.527Z,89.67
2017-03-10T04:42:46.060Z,89.24
2017-03-10T04:43:26.586Z,89.33
2017-03-10T04:44:07.135Z,89.67
2017-03-10T04:44:47.666Z,89.53
2017-03-10T04:45:28.195Z,89.62
2017-03-10T04:46:08.723Z,89.24
2017-03-10T04:46:49.257Z,89.62
2017-03-10T04:47:29.806Z,89.62
2017-03-10T04:48:10.338Z,89.28
2017-03-10T04:48:50.869Z,89.33
2017-03-10T04:49:31.454Z,89.24
2017-03-10T04:50:11.978Z,89.33
2017-03-10T04:50:52.503Z,89.24
2017-03-10T04:51:33.040Z,89.62
2017-03-10T04:52:13.579Z,89.62
2017-03-10T04:52:54.114Z,89.24
2017-03-10T04:53:34.641Z,89.33
2017-03-10T04:54:15.188Z,89.43
2017-03-10T04:54:55.712Z,89.43
2017-03-10T04:55:36.238Z,89.33
2017-03-10T04:56:16.763Z,89.76
2017-03-10T04:56:57.295Z,89.62
2017-03-10T04:57:37.824Z,89.72
2017-03-10T04:58:18.361Z,89.62
2017-03-10T04:58:58.883Z,89.33
2017-03-10T04:59:39.420Z,89.33
2017-03-10T05:00:19.931Z,89.33
2017-03-10T05:01:00.458Z,89.14
2017-03-10T05:01:40.994Z,89.33
2017-03-10T05:02:21.526Z,89.33
2017-03-10T05:03:02.071Z,89.33
2017-03-10T05:03:42.605Z,89.24
2017-03-10T05:04:23.134Z,89.33
2017-03-10T05:05:03.661Z,89.33
2017-03-10T05:05:44.198Z,89.24
2017-03-10T05:06:24.731Z,89.33
2017-03-10T05:07:05.352Z,89.33
2017-03-10T05:07:45.862Z,89.33
2017-03-10T05:08:26.404Z,89.53
2017-03-10T05:09:06.946Z,89.24
2017-03-10T05:09:47.468Z,89.43
2017-03-10T05:10:27.988Z,89.33
2017-03-10T05:11:08.526Z,89.24
2017-03-10T05:11:49.068Z,89.24
2017-03-10T05:12:29.593Z,89.24
2017-03-10T05:13:10.128Z,89.62
2017-03-10T05:13:50.658Z,89.24
2017-03-10T05:14:31.194Z,89.62
2017-03-10T05:15:11.723Z,89.62
2017-03-10T05:15:52.253Z,89.24
2017-03-10T05:16:32.774Z,89.62
2017-03-10T05:17:13.310Z,89.24
2017-03-10T05:17:53.852Z,89.62
2017-03-10T05:18:34.388Z,89.62
2017-03-10T05:19:14.926Z,89.14
2017-03-10T05:19:55.451Z,89.43
2017-03-10T05:20:35.985Z,89.43
2017-03-10T05:21:16.518Z,89.53
2017-03-10T05:21:57.054Z,89.43
2017-03-10T05:22:37.586Z,89.62
2017-03-10T05:23:18.112Z,89.53
2017-03-10T05:23:58.651Z,89.72
2017-03-10T05:24:39.190Z,89.53
2017-03-10T05:25:19.724Z,89.81
2017-03-10T05:26:00.250Z,89.72
2017-03-10T05:26:40.794Z,89.62
2017-03-10T05:27:21.334Z,89.62
2017-03-10T05:28:01.859Z,89.48
2017-03-10T05:28:42.402Z,89.76
2017-03-10T05:29:22.934Z,89.33
2017-03-10T05:30:03.457Z,89.39
2017-03-10T05:30:43.980Z,89.72
2017-03-10T05:31:24.513Z,89.48
2017-03-10T05:32:05.158Z,89.48
2017-03-10T05:32:46.291Z,89.48
2017-03-10T05:33:26.828Z,89.67
2017-03-10T05:34:07.378Z,89.29
2017-03-10T05:34:47.924Z,89.76
2017-03-10T05:35:28.450Z,89.76
2017-03-10T05:36:08.973Z,89.67
2017-03-10T05:36:49.530Z,89.67
2017-03-10T05:37:30.686Z,89.67
2017-03-10T05:38:11.221Z,89.48
2017-03-10T05:38:51.922Z,89.67
2017-03-10T05:39:32.711Z,89.48
2017-03-10T05:40:13.228Z,89.39
2017-03-10T05:40:53.761Z,89.29
2017-03-10T05:41:34.299Z,89.1
2017-03-10T05:42:14.834Z,89.1
2017-03-10T05:42:55.370Z,89.2
2017-03-10T05:43:35.902Z,89
2017-03-10T05:44:16.429Z,89.1
2017-03-10T05:44:56.968Z,89
2017-03-10T05:45:37.535Z,89.1
2017-03-10T05:46:18.065Z,89
2017-03-10T05:46:58.596Z,89.1
2017-03-10T05:47:39.126Z,89.1
2017-03-10T05:48:19.648Z,89.1
2017-03-10T05:49:00.173Z,89.1
2017-03-10T05:49:40.712Z,89
2017-03-10T05:50:21.247Z,89.58
2017-03-10T05:51:01.785Z,89.67
2017-03-10T05:51:42.311Z,89.48
2017-03-10T05:52:22.843Z,89.58
2017-03-10T05:53:03.377Z,89.67
2017-03-10T05:53:43.908Z,89.67
2017-03-10T05:54:24.437Z,89.67
2017-03-10T05:55:04.979Z,89.58
2017-03-10T05:55:45.498Z,89.76
2017-03-10T05:56:26.020Z,89.48
2017-03-10T05:57:06.545Z,89.48
2017-03-10T05:57:47.078Z,89.58
2017-03-10T05:58:27.618Z,89.48
2017-03-10T05:59:08.144Z,89.29
2017-03-10T05:59:48.679Z,89.29
2017-03-10T06:00:29.208Z,89.48
2017-03-10T06:01:09.741Z,89.48
2017-03-10T06:01:50.275Z,89.48
2017-03-10T06:02:30.805Z,89.67
2017-03-10T06:03:11.334Z,89.48
2017-03-10T06:03:51.872Z,89.58
2017-03-10T06:04:32.408Z,89.48
2017-03-10T06:05:12.943Z,89.48
2017-03-10T06:05:53.484Z,89.67
2017-03-10T06:06:34.021Z,89.48
2017-03-10T06:07:14.546Z,89.67
2017-03-10T06:09:13.762Z,89.58
2017-03-10T06:09:54.293Z,89.67
2017-03-10T06:10:34.822Z,89.48
2017-03-10T06:11:15.357Z,89.67
2017-03-10T06:11:55.887Z,89.58
2017-03-10T06:12:36.446Z,89.39
2017-03-10T06:13:16.975Z,89.48
2017-03-10T06:13:57.497Z,89.48
2017-03-10T06:14:38.115Z,89.39
2017-03-10T06:15:18.597Z,89.39
2017-03-10T06:15:59.119Z,89.29
2017-03-10T06:16:39.648Z,89.48
2017-03-10T06:17:20.183Z,89.48
2017-03-10T06:18:00.703Z,89
2017-03-10T06:18:41.232Z,89.1
2017-03-10T06:19:21.764Z,89.58
2017-03-10T06:20:02.291Z,89.2
2017-03-10T06:20:42.821Z,89.67
2017-03-10T06:21:23.374Z,89.2
2017-03-10T06:22:03.902Z,89.2
2017-03-10T06:22:44.437Z,89.48
2017-03-10T06:23:24.964Z,89.39
2017-03-10T06:24:05.494Z,89.39
2017-03-10T06:24:46.011Z,89.58
2017-03-10T06:25:26.544Z,89.48
2017-03-10T06:26:07.076Z,89.48
2017-03-10T06:26:47.656Z,89.76
2017-03-10T06:27:28.182Z,89.76
2017-03-10T06:28:08.714Z,89.86
2017-03-10T06:28:49.237Z,89.67
2017-03-10T06:29:29.757Z,89.39
2017-03-10T06:30:10.311Z,89.58
2017-03-10T06:30:50.834Z,89.58
2017-03-10T06:31:31.370Z,89.39
2017-03-10T06:32:11.888Z,89.58
2017-03-10T06:32:52.440Z,89.58
2017-03-10T06:33:32.941Z,89.86
2017-03-10T06:34:13.493Z,89.76
2017-03-10T06:34:53.988Z,89.76
2017-03-10T06:35:34.497Z,89.95
2017-03-10T06:36:15.027Z,89.76
2017-03-10T06:36:55.564Z,89.76
2017-03-10T06:37:36.093Z,89.76
2017-03-10T06:38:16.616Z,89.95
2017-03-10T06:38:57.145Z,89.67
2017-03-10T06:39:37.677Z,89.67
2017-03-10T06:40:18.204Z,89.67
2017-03-10T06:40:58.731Z,89.67
2017-03-10T06:41:39.268Z,89.58
2017-03-10T06:42:19.791Z,89.58
2017-03-10T06:43:00.327Z,89.86
2017-03-10T06:43:40.879Z,89.67
2017-03-10T06:44:21.411Z,90.43
2017-03-10T06:45:01.945Z,90.33
2017-03-10T06:45:42.472Z,89.39
2017-03-10T06:46:23.019Z,89.58
2017-03-10T06:47:03.554Z,89.39
2017-03-10T06:47:44.086Z,90.14
2017-03-10T06:48:24.617Z,89.39
2017-03-10T06:49:05.141Z,89.58
2017-03-10T06:49:45.696Z,89.95
2017-03-10T06:50:26.204Z,90.24
2017-03-10T06:51:06.725Z,90.14
2017-03-10T06:51:47.250Z,90.33
2017-03-10T06:52:27.806Z,89.58
2017-03-10T06:53:08.443Z,89.67
2017-03-10T06:53:49.159Z,89.67
2017-03-10T06:54:29.684Z,89.48
2017-03-10T06:55:10.218Z,89.48
2017-03-10T06:55:50.733Z,89.48
2017-03-10T06:56:31.267Z,89.67
2017-03-10T06:57:11.815Z,89.72
2017-03-10T06:57:52.304Z,89.62
2017-03-10T06:58:32.836Z,89.72
2017-03-10T06:59:13.368Z,89.62
2017-03-10T06:59:53.900Z,89.72
2017-03-10T07:00:34.428Z,89.72
2017-03-10T07:01:14.954Z,89.72
2017-03-10T07:01:55.494Z,89.72
2017-03-10T07:02:36.016Z,89.81
2017-03-10T07:03:16.545Z,89.9
2017-03-10T07:03:57.076Z,89.81
2017-03-10T07:04:37.664Z,89.9
2017-03-10T07:05:18.197Z,90
2017-03-10T07:05:58.732Z,89.9
2017-03-10T07:06:39.261Z,90
2017-03-10T07:07:19.792Z,89.53
2017-03-10T07:08:00.314Z,90
2017-03-10T07:08:40.850Z,89.81
2017-03-10T07:09:21.385Z,89.81
2017-03-10T07:10:01.915Z,89.81
2017-03-10T07:10:42.448Z,89.53
2017-03-10T07:11:22.977Z,89.53
2017-03-10T07:12:03.510Z,90
2017-03-10T07:12:44.045Z,89.9
2017-03-10T07:13:24.579Z,90
2017-03-10T07:14:05.107Z,89.81
2017-03-10T07:14:45.640Z,90
2017-03-10T07:15:26.170Z,89.9
2017-03-10T07:16:06.706Z,90
2017-03-10T07:16:47.237Z,90.09
2017-03-10T07:17:27.765Z,90.19
2017-03-10T07:18:08.311Z,90.09
2017-03-10T07:18:48.829Z,90.19
2017-03-10T07:19:29.358Z,90.19
2017-03-10T07:20:09.883Z,90.09
2017-03-10T07:20:50.461Z,90.09
2017-03-10T07:21:30.994Z,90.09
2017-03-10T07:22:11.522Z,89.72
2017-03-10T07:22:52.039Z,89.72
2017-03-10T07:23:32.575Z,90.09
2017-03-10T07:24:13.112Z,89.81
2017-03-10T07:24:53.644Z,90.19
2017-03-10T07:25:34.177Z,90
2017-03-10T07:26:14.711Z,90.19
2017-03-10T07:26:55.244Z,90
2017-03-10T07:27:35.777Z,90
2017-03-10T07:28:16.319Z,89.53
2017-03-10T07:28:56.856Z,90
2017-03-10T07:29:37.391Z,90
2017-03-10T07:30:17.929Z,90.09
2017-03-10T07:30:58.460Z,90
2017-03-10T07:31:38.987Z,90
2017-03-10T07:32:19.522Z,90
2017-03-10T07:33:00.055Z,89.81
2017-03-10T07:33:40.595Z,90.05
2017-03-10T07:34:21.127Z,89.86
2017-03-10T07:35:01.670Z,90.05
2017-03-10T07:35:42.184Z,90.23
2017-03-10T07:36:22.712Z,90.14
2017-03-10T07:37:03.248Z,90.23
2017-03-10T07:37:43.793Z,90.05
2017-03-10T07:38:24.381Z,89.95
2017-03-10T07:39:04.916Z,89.95
2017-03-10T07:39:45.451Z,89.86
2017-03-10T07:40:25.966Z,89.86
2017-03-10T07:41:06.498Z,89.76
2017-03-10T07:41:47.032Z,89.76
2017-03-10T07:42:27.563Z,90.33
2017-03-10T07:43:08.122Z,89.76
2017-03-10T07:43:48.650Z,90.42
2017-03-10T07:44:29.231Z,90.42
2017-03-10T07:45:09.764Z,89.57
2017-03-10T07:45:50.290Z,89.86
2017-03-10T07:46:30.828Z,89.86
2017-03-10T07:47:11.354Z,90.23
2017-03-10T07:47:51.889Z,89.76
2017-03-10T07:48:32.422Z,89.76
2017-03-10T07:49:12.953Z,90.23
2017-03-10T07:49:53.488Z,89.76
2017-03-10T07:50:34.019Z,89.76
2017-03-10T07:51:14.547Z,90.61
2017-03-10T07:51:55.084Z,90.71
2017-03-10T07:52:35.613Z,90.61
2017-03-10T07:53:16.139Z,90.42
2017-03-10T07:53:56.670Z,90.42
2017-03-10T07:54:37.194Z,90.47
2017-03-10T07:55:17.735Z,90.47
2017-03-10T07:55:58.266Z,90.37
2017-03-10T07:56:38.787Z,89.61
2017-03-10T07:57:19.325Z,90.28
2017-03-10T07:57:59.844Z,90.47
2017-03-10T07:58:40.391Z,90.28
2017-03-10T07:59:20.921Z,90.28
2017-03-10T08:00:01.455Z,90.56
2017-03-10T08:00:41.985Z,89.8
2017-03-10T08:01:22.512Z,90
2017-03-10T08:02:03.043Z,89.71
2017-03-10T08:02:43.618Z,89.52
2017-03-10T08:03:24.156Z,89.8
2017-03-10T08:04:04.752Z,90
2017-03-10T08:04:45.464Z,89.71
2017-03-10T08:05:25.997Z,89.8
2017-03-10T08:06:06.530Z,90
2017-03-10T08:06:47.059Z,89.8
2017-03-10T08:07:27.600Z,89.8
2017-03-10T08:08:08.130Z,89.71
2017-03-10T08:08:48.687Z,89.71
2017-03-10T08:09:29.319Z,89.71
2017-03-10T08:10:09.884Z,89.71
2017-03-10T08:10:50.422Z,89.61
2017-03-10T08:11:30.960Z,89.71
2017-03-10T08:12:11.498Z,89.9
2017-03-10T08:12:52.035Z,90
2017-03-10T08:13:32.566Z,90
2017-03-10T08:14:13.096Z,89.8
2017-03-10T08:14:53.630Z,90.28
2017-03-10T08:15:34.164Z,89.8
2017-03-10T08:16:14.697Z,89.71
2017-03-10T08:16:55.224Z,89.71
2017-03-10T08:17:35.762Z,89.71
2017-03-10T08:18:17.150Z,89.52
2017-03-10T08:18:57.686Z,89.71
2017-03-10T08:19:38.218Z,89.61
2017-03-10T08:20:18.835Z,89.8
2017-03-10T08:20:59.380Z,89.8
2017-03-10T08:21:39.957Z,89.9
2017-03-10T08:22:20.494Z,89.9
2017-03-10T08:23:01.030Z,90.19
2017-03-10T08:23:41.590Z,89.8
2017-03-10T08:24:22.124Z,89.8
2017-03-10T08:25:02.657Z,89.71
2017-03-10T08:25:43.181Z,89.52
2017-03-10T08:26:23.743Z,89.42
2017-03-10T08:27:04.266Z,89.52
2017-03-10T08:27:44.800Z,89.71
2017-03-10T08:28:25.327Z,89.61
2017-03-10T08:29:05.859Z,89.52
2017-03-10T08:29:46.392Z,89.52
2017-03-10T08:30:26.921Z,89.42
2017-03-10T08:31:07.455Z,89.71
2017-03-10T08:31:47.986Z,89.42
2017-03-10T08:32:28.516Z,89.71
2017-03-10T08:33:09.051Z,89.52
2017-03-10T08:33:49.582Z,89.52
2017-03-10T08:34:30.111Z,89.71
2017-03-10T08:35:10.645Z,89.71
2017-03-10T08:35:51.180Z,89.71
2017-03-10T08:36:31.706Z,89.71
2017-03-10T08:37:12.235Z,89.52
2017-03-10T08:37:52.762Z,89.61
2017-03-10T08:38:33.299Z,89.71
2017-03-10T08:39:13.840Z,89.61
2017-03-10T08:39:54.357Z,89.61
2017-03-10T08:40:34.900Z,89.71
2017-03-10T08:41:15.438Z,89.8
2017-03-10T08:41:55.981Z,89.8
2017-03-10T08:42:36.524Z,89.61
2017-03-10T08:43:17.131Z,89.8
2017-03-10T08:43:57.668Z,89.9
2017-03-10T08:44:38.219Z,89.61
2017-03-10T08:45:18.726Z,89.8
2017-03-10T08:45:59.259Z,89.61
2017-03-10T08:46:39.797Z,89.8
2017-03-10T08:47:20.332Z,89.9
2017-03-10T08:48:00.876Z,89.8
2017-03-10T08:48:41.407Z,90
2017-03-10T08:49:21.943Z,89.9
2017-03-10T08:50:02.481Z,89.8
2017-03-10T08:50:43.011Z,89.8
2017-03-10T08:51:23.542Z,89.8
2017-03-10T08:52:04.076Z,89.61
2017-03-10T08:52:44.610Z,89.8
2017-03-10T08:53:25.146Z,90
2017-03-10T08:54:05.676Z,89.9
2017-03-10T08:54:46.212Z,89.8
2017-03-10T08:55:26.747Z,89.8
2017-03-10T08:56:07.284Z,90
2017-03-10T08:56:47.819Z,90
2017-03-10T08:57:28.356Z,89.9
2017-03-10T08:58:08.890Z,90
2017-03-10T08:58:49.421Z,89.71
2017-03-10T08:59:29.953Z,89.14
2017-03-10T09:00:10.530Z,89.42
2017-03-10T09:00:51.066Z,89.23
2017-03-10T09:01:31.602Z,89.33
2017-03-10T09:02:12.241Z,89.23
2017-03-10T09:02:52.736Z,89.04
2017-03-10T09:03:33.274Z,89.42
2017-03-10T09:04:13.807Z,89.23
2017-03-10T09:04:54.332Z,89.14
2017-03-10T09:05:34.875Z,89.33
2017-03-10T09:06:15.419Z,89.33
2017-03-10T09:06:55.981Z,89.14
2017-03-10T09:07:36.516Z,89.33
2017-03-10T09:08:17.096Z,88.76
2017-03-10T09:08:57.618Z,88.95
2017-03-10T09:09:38.154Z,88.95
2017-03-10T09:10:18.703Z,88.8
2017-03-10T09:10:59.244Z,89.09
2017-03-10T09:11:39.779Z,89.18
2017-03-10T09:12:20.314Z,89.28
2017-03-10T09:13:00.848Z,89.47
2017-03-10T09:13:41.375Z,89.47
2017-03-10T09:14:21.957Z,89.47
2017-03-10T09:15:02.473Z,89.18
2017-03-10T09:15:42.995Z,89.37
2017-03-10T09:16:23.534Z,89.09
2017-03-10T09:17:04.069Z,89.28
2017-03-10T09:17:45.008Z,88.71
2017-03-10T09:18:27.312Z,88.66
2017-03-10T09:19:10.557Z,88.56
2017-03-10T09:19:52.793Z,88.66
2017-03-10T09:20:36.059Z,88.6
2017-03-10T09:21:18.901Z,88.89